Flight Track Log - Related Links

Times and Time Zones

All times are in EDT time to prevent confusion due to time zone crossing. See the SWA2612 flight status page for this flight to view local times or setup timezone preferences in your user account.

Time Position Orientation Groundspeed Altitude Reporting Facility
EDT Latitude Longitude Course Direction KTS MPH feet Rate Location/Type
Mon 01:44:55 AM 33.4333 -112.0500 270° West 191 220 2,600  Level Phoenix TRACON
Mon 01:46:05 AM 33.4100 -112.1247 250° West 212 244 5,600 2,611 Climbing Albuquerque Center
Mon 01:47:06 AM 33.3978 -112.2011 259° West 247 284 8,300 2,727 Climbing Albuquerque Center
Mon 01:48:06 AM 33.4072 -112.2992 277° West 295 339 11,100 2,826 Climbing Albuquerque Center
Mon 01:49:07 AM 33.4181 -112.4178 276° West 356 410 14,000 3,273 Climbing Albuquerque Center
Mon 01:50:07 AM 33.4294 -112.5428 276° West 375 432 17,700 3,400 Climbing Albuquerque Center
Mon 01:51:07 AM 33.4400 -112.6747 276° West 372 428 20,800 2,678 Climbing Albuquerque Center
Mon 01:52:08 AM 33.4511 -112.8036 276° West 382 440 23,100 2,281 Climbing Albuquerque Center
Mon 01:53:08 AM 33.4753 -112.9397 282° West 407 468 25,400 2,132 Climbing Albuquerque Center
Mon 01:54:09 AM 33.5017 -113.0781 283° West 424 488 27,400 1,983 Climbing Albuquerque Center
Mon 01:55:09 AM 33.5292 -113.2203 283° West 436 502 29,400 2,430 Climbing Albuquerque Center
Mon 01:56:10 AM 33.5556 -113.3603 283° West 435 501 32,300 2,430 Climbing Albuquerque Center
Mon 01:57:10 AM 33.5808 -113.4936 283° West 418 481 34,300 1,650 Climbing Albuquerque Center
Mon 01:58:10 AM 33.6064 -113.6269 283° West 413 475 35,600 1,438 Climbing Albuquerque Center
Mon 01:59:11 AM 33.6347 -113.7861 282° West 420 483 37,200 1,190 Climbing Albuquerque Center
Mon 02:00:11 AM 33.6592 -113.9217 282° West 418 481 38,000 397 Climbing Albuquerque Center
Mon 02:01:12 AM 33.6853 -114.0567 283° West 415 478 38,000  Level Albuquerque Center
Mon 02:02:12 AM 33.7094 -114.1894 282° West 410 472 38,000  Level Albuquerque Center
Mon 02:03:12 AM 33.7331 -114.3256 282° West 407 468 38,000  Level Albuquerque Center
Mon 02:04:15 AM 33.7589 -114.4631 283° West 408 470 38,000  Level Los Angeles Center
Mon 02:05:16 AM 33.7789 -114.5983 280° West 412 474 38,000  Level Los Angeles Center
Mon 02:06:17 AM 33.7844 -114.7344 273° West 411 473 38,000  Level Los Angeles Center
Mon 02:07:18 AM 33.7925 -114.8697 274° West 409 471 38,000  Level Los Angeles Center
Mon 02:08:19 AM 33.7992 -115.0044 273° West 405 466 38,000  Level Los Angeles Center
Mon 02:09:20 AM 33.8083 -115.1403 275° West 410 472 38,000  Level Los Angeles Center
Mon 02:10:21 AM 33.8144 -115.2725 273° West 401 461 38,000  Level Los Angeles Center
Mon 02:11:22 AM 33.8217 -115.4042 274° West 397 457 38,000  Level Los Angeles Center
Mon 02:12:23 AM 33.8492 -115.5331 284° West 405 466 38,000  Level Los Angeles Center
Mon 02:13:24 AM 33.8906 -115.6611 291° West 411 473 38,000  Level Los Angeles Center
Mon 02:14:24 AM 33.9400 -115.8153 291° West 413 475 38,000  Level Los Angeles Center
Mon 02:15:25 AM 33.9800 -115.9422 291° West 410 472 38,000  Level Los Angeles Center
Mon 02:16:39 AM 34.0286 -116.0956 291° West 410 472 38,000  Level Los Angeles Center
Mon 02:17:40 AM 34.0689 -116.2242 291° West 411 473 38,000  Level Los Angeles Center
Mon 02:18:40 AM 34.1097 -116.3533 291° West 413 475 38,000  Level Los Angeles Center
Mon 02:19:41 AM 34.1503 -116.4842 291° West 416 479 38,000  Level Los Angeles Center
Mon 02:20:42 AM 34.1917 -116.6125 291° West 414 476 38,000  Level Los Angeles Center
Mon 02:21:43 AM 34.2447 -116.7400 297° West 421 484 38,000  Level Los Angeles Center
Mon 02:22:44 AM 34.2969 -116.8656 297° West 419 482 38,000  Level Los Angeles Center
Mon 02:23:45 AM 34.3503 -116.9914 297° West 420 483 38,000  Level Los Angeles Center
Mon 02:24:46 AM 34.4033 -117.1161 297° West 419 482 38,000  Level Los Angeles Center
Mon 02:25:47 AM 34.4556 -117.2431 297° West 420 483 38,000  Level Los Angeles Center
Mon 02:26:48 AM 34.5097 -117.3719 297° West 428 493 38,000  Level Los Angeles Center
Mon 02:27:48 AM 34.5633 -117.5006 297° West 426 490 38,000  Level Los Angeles Center
Mon 02:28:49 AM 34.6158 -117.6289 296° West 424 488 38,000  Level Los Angeles Center
Mon 02:29:50 AM 34.6692 -117.7569 297° West 422 486 38,000  Level Los Angeles Center
Mon 02:30:51 AM 34.7308 -117.9106 296° West 420 483 38,000  Level Los Angeles Center
Mon 02:31:52 AM 34.7850 -118.0386 297° West 423 487 38,000  Level Los Angeles Center
Mon 02:32:53 AM 34.8361 -118.1656 296° West 418 481 38,000  Level Los Angeles Center
Mon 02:33:54 AM 34.8878 -118.2914 297° West 416 479 38,000  Level Los Angeles Center
Mon 02:34:54 AM 34.9378 -118.4181 296° West 415 478 38,000  Level Los Angeles Center
Mon 02:35:55 AM 34.9839 -118.5300 297° West 419 482 38,000  Level Los Angeles Center
Mon 02:36:56 AM 35.0367 -118.6572 297° West 420 483 38,000  Level Los Angeles Center
Mon 02:37:57 AM 35.0967 -118.8117 295° West 421 484 38,000  Level Los Angeles Center
Mon 02:38:57 AM 35.1472 -118.9378 296° West 414 476 38,000  Level Los Angeles Center
Mon 02:39:58 AM 35.1992 -119.0656 296° West 420 483 38,000  Level Los Angeles Center
Mon 02:40:59 AM 35.2511 -119.1928 297° West 421 484 38,000  Level Los Angeles Center
Mon 02:42:00 AM 35.3008 -119.3217 295° West 421 484 38,000  Level Los Angeles Center
Mon 02:43:00 AM 35.3511 -119.4492 296° West 418 481 38,000  Level Los Angeles Center
Mon 02:44:01 AM 35.4008 -119.5756 296° West 417 480 38,000  Level Los Angeles Center
Mon 02:45:02 AM 35.4511 -119.7039 296° West 419 482 38,000  Level Los Angeles Center
Mon 02:46:03 AM 35.4994 -119.8331 295° West 419 482 38,000  Level Los Angeles Center
Mon 02:47:09 AM 35.5611 -119.9914 296° West 432 497 38,000  Level Oakland Center
Mon 02:48:10 AM 35.6117 -120.1228 295° West 433 498 38,000  Level Oakland Center
Mon 02:49:10 AM 35.6614 -120.2525 295° West 428 493 38,000  Level Oakland Center
Mon 02:50:11 AM 35.7119 -120.3825 296° West 427 491 38,000  Level Oakland Center
Mon 02:51:11 AM 35.7608 -120.5133 295° West 425 489 38,000  Level Oakland Center
Mon 02:52:12 AM 35.8350 -120.6289 308° West 437 503 38,000  Level Oakland Center
Mon 02:53:12 AM 35.9147 -120.7403 311° West 435 501 38,000  Level Oakland Center
Mon 02:54:13 AM 35.9936 -120.8531 311° West 435 501 38,000  Level Oakland Center
Mon 02:55:13 AM 36.0742 -120.9664 311° West 438 504 38,000 -496 Level Oakland Center
Mon 02:56:14 AM 36.1539 -121.0786 311° West 438 504 37,000 -1,884 Descending Oakland Center
Mon 02:57:14 AM 36.2331 -121.1925 311° West 436 502 34,200 -2,430 Descending Oakland Center
Mon 02:58:15 AM 36.3122 -121.3050 311° West 434 499 32,100 -2,083 Descending Oakland Center
Mon 02:59:15 AM 36.3881 -121.4139 311° West 423 487 30,000 -1,835 Descending Oakland Center
Mon 03:00:16 AM 36.4778 -121.5442 311° West 416 479 28,400 -1,686 Descending Oakland Center
Mon 03:01:16 AM 36.5603 -121.6619 311° West 444 511 26,600 -2,083 Descending Oakland Center
Mon 03:02:17 AM 36.6394 -121.7753 311° West 438 504 24,200 -2,231 Descending Oakland Center
Mon 03:03:17 AM 36.7036 -121.8708 310° West 426 490 22,100 -2,132 Descending Oakland Center
Mon 03:04:18 AM 36.7764 -121.9758 311° West 407 468 19,900 -2,231 Descending Oakland Center
Mon 03:05:18 AM 36.8467 -122.0803 310° West 395 455 17,600 -2,231 Descending Oakland Center
Mon 03:06:19 AM 36.9158 -122.1822 310° West 388 447 15,400 -2,182 Descending Oakland Center
Mon 03:07:19 AM 36.9825 -122.2792 311° West 371 427 13,200 -1,785 Descending Oakland Center
Mon 03:08:20 AM 37.0586 -122.3942 310° West 357 411 11,800 -1,091 Descending Oakland Center
Mon 03:09:20 AM 37.1247 -122.4569 323° Northwest 310 357 11,000 -1,091 Descending Oakland Center
Mon 03:10:21 AM 37.2039 -122.4908 341° North 301 346 9,600 -1,488 Descending Oakland Center
Mon 03:11:21 AM 37.2833 -122.5256 341° North 302 348 8,000 -800 Descending Oakland Center
Mon 03:12:21 AM 37.3608 -122.5586 341° North 297 342 8,000 -496 Level Oakland Center
Mon 03:13:22 AM 37.4414 -122.5558 North 297 342 7,000 -496 Descending Oakland Center
Mon 03:14:22 AM 37.5208 -122.5364 11° North 293 337 7,000 -248 Level Oakland Center
Mon 03:15:23 AM 37.5967 -122.5128 14° North 286 329 6,500 -545 Descending Oakland Center
Mon 03:16:23 AM 37.6675 -122.4733 24° Northeast 280 322 5,900 -750 Descending Oakland Center
Mon 03:17:23 AM 37.7397 -122.4353 23° Northeast 282 325 5,000 -454 Descending Oakland Center
Mon 03:18:22 AM 37.8167 -122.4000 20° North 248 285 5,000 -202 Level Northern Cal TRACON
Mon 03:19:22 AM 37.8667 -122.3500 38° Northeast 237 273 4,600 -750 Descending Northern Cal TRACON
Mon 03:20:22 AM 37.8333 -122.3000 130° Southeast 212 244 3,500 -900 Descending Northern Cal TRACON
Mon 03:21:22 AM 37.7833 -122.2833 165° South 209 241 2,800 -600 Descending Northern Cal TRACON
Mon 03:22:22 AM 37.7167 -122.3000 191° South 208 239 2,300 -726 Descending Northern Cal TRACON
Mon 03:23:26 AM 37.6850 -122.3308 218° Southwest 194 223 1,300 -871 Descending Oakland Center
Mon 03:24:26 AM 37.6497 -122.3533 207° Southwest 166 191 500 -800 Descending Oakland Center
Mon 03:27:00 AM 37.6167 -122.3667 183° South  Level FlightAware Approximate

Login

Don't have an account? Register now (free) for customized features, flight alerts, and more!